Terminal Aerodrome Forecast
Issued by NWS Austin/San Antonio, TX

Home | Current Version | Previous Version | Text Only | Print | Product List | Glossary On
Versions: 1 2 3 4 5 6 7 8 9 10 11 12 13 14 15 16 17 18 19 20 21 22
000
FTUS44 KEWX 291258 AAA
TAFSAT
TAF AMD
KSAT 291258Z 2913/3018 18007KT P6SM BKN015
     FM291700 15010KT P6SM SCT050 BKN200
     FM300800 16004KT P6SM BKN010
     FM301600 17008KT P6SM SCT040=

USA.gov is the U.S. government's official web portal to all federal, state and local government web resources and services.